Time;durP1;ratioP1;P1;durP2;ratioP2;P2;SDS_P1;SDS_P2;PMS_P1;PMS_P2;Temp;Humidity;BMP_temperature;BMP_pressure;BME280_temperature;BME280_humidity;BME280_pressure;Samples;Min_cycle;Max_cycle;Signal;HPM_P1;HPM_P2
2023/04/27 00:02:09;;;;;;;11.93;3.80;;;4.00;99.90;;;;;;5035644;28;20201;-48
2023/04/27 00:04:34;;;;;;;9.83;5.10;;;4.00;99.90;;;;;;5035282;28;20203;-48
2023/04/27 00:07:00;;;;;;;7.40;3.60;;;4.00;99.90;;;;;;5035368;28;20175;-48
2023/04/27 00:09:25;;;;;;;12.70;3.77;;;4.00;99.90;;;;;;5035102;28;20620;-48
2023/04/27 00:11:51;;;;;;;9.43;3.50;;;4.00;99.90;;;;;;5034735;28;20178;-49
2023/04/27 00:14:17;;;;;;;8.47;3.60;;;4.00;99.90;;;;;;5035296;28;20179;-49
2023/04/27 00:16:42;;;;;;;11.83;4.10;;;3.90;99.90;;;;;;5033635;28;20183;-48
2023/04/27 00:19:08;;;;;;;13.33;3.80;;;3.90;99.90;;;;;;5034969;28;20650;-49
2023/04/27 00:21:34;;;;;;;13.83;4.00;;;4.00;99.90;;;;;;5035296;28;20628;-48
2023/04/27 00:24:00;;;;;;;4.83;3.27;;;4.00;99.90;;;;;;5034781;28;20497;-48
2023/04/27 00:26:25;;;;;;;8.87;3.83;;;4.00;99.90;;;;;;5034924;28;20628;-48
2023/04/27 00:28:51;;;;;;;7.83;4.27;;;3.90;99.90;;;;;;5035075;28;20187;-49
2023/04/27 00:31:17;;;;;;;8.50;3.90;;;3.90;99.90;;;;;;5034738;28;20184;-48
2023/04/27 00:33:42;;;;;;;13.40;3.90;;;3.80;99.90;;;;;;5034934;28;20183;-48
2023/04/27 00:36:08;;;;;;;6.30;4.20;;;3.80;99.90;;;;;;5034821;28;20183;-48
2023/04/27 00:38:34;;;;;;;8.27;3.60;;;3.80;99.90;;;;;;5034799;28;20261;-49
2023/04/27 00:41:03;;;;;;;12.70;3.70;;;3.70;99.90;;;;;;5034642;28;20270;-48
2023/04/27 00:43:29;;;;;;;9.70;4.50;;;3.70;99.90;;;;;;5035162;28;20180;-48
2023/04/27 00:45:55;;;;;;;14.00;4.10;;;3.70;99.90;;;;;;5034778;28;20949;-49
2023/04/27 00:48:21;;;;;;;8.30;3.57;;;3.70;99.90;;;;;;5034538;28;20466;-49
2023/04/27 00:50:47;;;;;;;8.77;4.13;;;3.60;99.90;;;;;;5034394;28;20251;-48
2023/04/27 00:53:13;;;;;;;9.77;4.50;;;3.60;99.90;;;;;;5034915;28;20187;-48
2023/04/27 00:55:39;;;;;;;7.87;3.53;;;3.60;99.90;;;;;;5034242;28;20211;-48
2023/04/27 00:58:04;;;;;;;9.03;4.43;;;3.60;1.00;;;;;;5034505;28;20968;-48
2023/04/27 01:00:30;;;;;;;11.27;4.23;;;3.60;1.00;;;;;;5034370;28;20577;-48
2023/04/27 01:02:56;;;;;;;10.33;4.50;;;3.70;1.00;;;;;;5034452;28;20190;-48
2023/04/27 01:05:24;;;;;;;9.03;4.10;;;3.70;1.00;;;;;;5033973;28;20211;-48
2023/04/27 01:07:50;;;;;;;8.13;4.23;;;3.70;1.00;;;;;;5034751;28;20267;-49
2023/04/27 01:10:16;;;;;;;10.63;4.93;;;3.70;1.00;;;;;;5034073;28;20446;-48
2023/04/27 01:12:41;;;;;;;14.70;4.30;;;3.70;1.00;;;;;;5033814;28;20171;-49
2023/04/27 01:15:08;;;;;;;9.60;4.57;;;3.70;1.00;;;;;;5034212;28;20317;-48
2023/04/27 01:17:33;;;;;;;9.07;4.70;;;3.70;1.00;;;;;;5034050;28;20232;-48
2023/04/27 01:19:59;;;;;;;8.67;4.93;;;3.70;1.00;;;;;;5033999;28;20500;-48
2023/04/27 01:22:25;;;;;;;12.50;4.63;;;3.70;1.00;;;;;;5034065;28;20215;-48
2023/04/27 01:24:51;;;;;;;5.53;4.43;;;3.70;1.00;;;;;;5034131;28;20221;-48
2023/04/27 01:27:16;;;;;;;10.10;3.90;;;3.70;1.00;;;;;;5034037;28;20865;-48
2023/04/27 01:29:43;;;;;;;7.47;4.20;;;3.60;1.00;;;;;;5033843;28;20176;-48
2023/04/27 01:32:09;;;;;;;9.97;4.00;;;3.60;1.00;;;;;;5034241;28;20657;-48
2023/04/27 01:34:34;;;;;;;8.13;4.50;;;3.60;1.00;;;;;;5033591;28;20410;-48
2023/04/27 01:37:00;;;;;;;12.20;4.70;;;3.50;1.00;;;;;;5033613;28;20218;-49
2023/04/27 01:39:26;;;;;;;9.90;4.80;;;3.50;1.00;;;;;;5033525;28;20180;-49
2023/04/27 01:41:51;;;;;;;5.40;4.20;;;3.50;1.00;;;;;;5033637;28;20265;-48
2023/04/27 01:44:19;;;;;;;11.77;4.50;;;3.40;1.00;;;;;;5033858;28;20194;-48
2023/04/27 01:46:45;;;;;;;9.23;4.53;;;3.40;1.00;;;;;;5033749;28;20187;-48
2023/04/27 01:49:10;;;;;;;9.03;4.50;;;3.40;1.00;;;;;;5033209;28;20572;-48
2023/04/27 01:51:36;;;;;;;13.73;5.23;;;3.40;1.00;;;;;;5033043;28;20180;-49
2023/04/27 01:54:01;;;;;;;9.00;4.37;;;3.40;1.00;;;;;;5033674;28;20250;-48
2023/04/27 01:56:27;;;;;;;8.27;3.73;;;3.50;1.00;;;;;;5033396;28;20167;-48
2023/04/27 01:58:52;;;;;;;11.37;3.97;;;3.50;1.00;;;;;;5033718;28;20242;-48
2023/04/27 02:01:18;;;;;;;12.43;4.37;;;3.40;1.00;;;;;;5033476;28;20183;-48
2023/04/27 02:03:44;;;;;;;14.27;4.97;;;3.40;1.00;;;;;;5033359;28;20190;-48
2023/04/27 02:06:09;;;;;;;10.87;4.57;;;3.40;5.30;;;;;;5033278;28;20218;-48
2023/04/27 02:08:35;;;;;;;11.20;5.00;;;3.50;78.20;;;;;;5033768;28;20243;-48
2023/04/27 02:11:01;;;;;;;13.60;5.07;;;3.50;99.90;;;;;;5033204;28;20191;-49
2023/04/27 02:13:26;;;;;;;9.10;4.60;;;3.60;99.90;;;;;;5033532;28;20186;-49
2023/04/27 02:15:52;;;;;;;9.17;4.27;;;3.60;74.30;;;;;;5033015;28;20689;-48
2023/04/27 02:18:19;;;;;;;9.07;4.43;;;3.60;1.00;;;;;;5033174;28;20182;-48
2023/04/27 02:20:44;;;;;;;9.83;4.80;;;3.70;1.00;;;;;;5033382;28;20178;-48
2023/04/27 02:23:10;;;;;;;9.43;5.07;;;3.60;1.00;;;;;;5033466;28;20508;-48
2023/04/27 02:25:37;;;;;;;7.83;4.83;;;3.70;1.00;;;;;;5033101;28;20260;-48
2023/04/27 02:28:03;;;;;;;6.03;3.80;;;3.70;1.00;;;;;;5033151;28;20666;-48
2023/04/27 02:30:29;;;;;;;9.03;4.30;;;3.70;1.00;;;;;;5033382;28;20426;-49
2023/04/27 02:32:56;;;;;;;18.17;5.10;;;3.70;1.00;;;;;;5033385;28;20195;-48
2023/04/27 02:35:21;;;;;;;11.77;5.00;;;3.70;1.00;;;;;;5033224;28;20428;-48
2023/04/27 02:37:47;;;;;;;9.90;4.93;;;3.70;1.00;;;;;;5033091;28;20513;-48
2023/04/27 02:40:13;;;;;;;9.80;4.30;;;3.70;1.00;;;;;;5033210;28;20183;-48
2023/04/27 02:42:38;;;;;;;8.63;4.70;;;3.70;1.00;;;;;;5032996;28;20222;-48
2023/04/27 02:45:06;;;;;;;7.97;4.57;;;3.70;1.00;;;;;;5033076;28;20219;-48
2023/04/27 02:47:31;;;;;;;8.07;4.20;;;3.80;1.00;;;;;;5032503;28;20577;-49
2023/04/27 02:49:57;;;;;;;7.20;4.23;;;3.70;1.00;;;;;;5033070;28;20535;-48
2023/04/27 02:52:22;;;;;;;7.90;4.30;;;3.80;1.00;;;;;;5032670;28;20183;-47
2023/04/27 02:54:48;;;;;;;8.40;4.53;;;3.70;1.00;;;;;;5033030;28;20269;-48
2023/04/27 02:57:14;;;;;;;7.97;3.83;;;3.70;1.00;;;;;;5032598;28;20179;-48
2023/04/27 02:59:39;;;;;;;7.37;4.03;;;3.70;1.00;;;;;;5032641;28;20179;-48
2023/04/27 03:02:05;;;;;;;5.87;3.63;;;3.70;1.00;;;;;;5033475;28;20229;-48
2023/04/27 03:04:31;;;;;;;7.13;3.73;;;3.60;1.00;;;;;;5036617;28;20333;-48
2023/04/27 03:06:56;;;;;;;5.33;3.50;;;3.60;1.00;;;;;;5036769;28;20179;-48
2023/04/27 03:09:22;;;;;;;10.40;3.80;;;3.50;1.00;;;;;;5036446;28;20429;-48
2023/04/27 03:11:47;;;;;;;11.23;3.57;;;3.50;1.00;;;;;;5036371;28;20187;-48
2023/04/27 03:14:13;;;;;;;11.43;4.30;;;3.40;1.00;;;;;;5036494;28;20184;-48
2023/04/27 03:16:39;;;;;;;5.53;3.60;;;3.50;1.00;;;;;;5036719;28;20612;-48
2023/04/27 03:19:05;;;;;;;8.20;3.93;;;3.40;1.00;;;;;;5036420;28;20229;-48
2023/04/27 03:21:30;;;;;;;7.47;3.67;;;3.40;1.00;;;;;;5036211;28;20210;-48
2023/04/27 03:23:56;;;;;;;8.50;4.43;;;3.40;1.00;;;;;;5035955;28;20202;-48
2023/04/27 03:26:21;;;;;;;6.37;3.70;;;3.40;1.00;;;;;;5035906;28;20214;-48
2023/04/27 03:28:47;;;;;;;10.47;3.63;;;3.30;1.00;;;;;;5036226;28;20251;-48
2023/04/27 03:31:14;;;;;;;8.93;4.10;;;3.30;1.00;;;;;;5035906;28;20210;-47
2023/04/27 03:33:40;;;;;;;9.20;4.20;;;3.20;1.00;;;;;;5036183;28;20312;-48
2023/04/27 03:36:07;;;;;;;14.73;4.83;;;3.20;1.00;;;;;;5035911;28;20819;-48
2023/04/27 03:38:33;;;;;;;8.97;4.40;;;3.20;36.80;;;;;;5036295;28;20493;-47
2023/04/27 03:40:59;;;;;;;10.03;4.50;;;3.20;99.90;;;;;;5036029;28;20437;-48
2023/04/27 03:43:26;;;;;;;8.83;4.63;;;3.40;99.90;;;;;;5035581;28;20946;-48
2023/04/27 03:45:52;;;;;;;17.20;5.53;;;3.50;99.90;;;;;;5036186;28;20228;-47
2023/04/27 03:48:18;;;;;;;13.80;5.60;;;3.60;36.80;;;;;;5035636;28;20548;-47
2023/04/27 03:50:45;;;;;;;13.17;5.90;;;3.50;1.00;;;;;;5035797;28;20966;-48
2023/04/27 03:53:11;;;;;;;17.40;5.33;;;3.50;1.00;;;;;;5035634;28;20893;-48
2023/04/27 03:55:38;;;;;;;14.63;5.93;;;3.50;5.40;;;;;;5035687;28;20470;-48
2023/04/27 03:58:03;;;;;;;13.33;5.50;;;3.50;1.00;;;;;;5035757;28;20765;-48
2023/04/27 04:00:30;;;;;;;10.97;5.70;;;3.40;1.00;;;;;;5035434;28;20418;-48
2023/04/27 04:02:55;;;;;;;10.87;5.27;;;3.40;1.00;;;;;;5035770;28;20241;-48
2023/04/27 04:05:21;;;;;;;9.83;5.73;;;3.30;1.00;;;;;;5035462;28;20466;-48
2023/04/27 04:07:46;;;;;;;17.80;6.10;;;3.40;62.10;;;;;;5035413;28;20179;-48
2023/04/27 04:10:12;;;;;;;9.10;5.37;;;3.40;71.70;;;;;;5035643;28;20879;-48
2023/04/27 04:12:37;;;;;;;11.47;5.60;;;3.30;68.60;;;;;;5035003;28;20273;-49
2023/04/27 04:15:04;;;;;;;22.90;5.90;;;3.40;93.40;;;;;;5033959;28;20199;-47
2023/04/27 04:17:29;;;;;;;14.20;5.77;;;3.50;99.90;;;;;;5035225;28;20187;-48
2023/04/27 04:19:55;;;;;;;12.73;5.17;;;3.50;84.40;;;;;;5035461;28;20414;-47
2023/04/27 04:22:20;;;;;;;16.67;6.63;;;3.50;69.70;;;;;;5034888;28;20727;-48
2023/04/27 04:24:46;;;;;;;17.60;7.50;;;3.50;56.10;;;;;;5035257;28;20226;-47
2023/04/27 04:27:12;;;;;;;17.47;7.43;;;3.50;99.90;;;;;;5034730;28;20179;-48
2023/04/27 04:29:38;;;;;;;19.40;6.50;;;3.40;99.90;;;;;;5035245;28;20187;-47
2023/04/27 04:32:04;;;;;;;15.43;6.80;;;3.40;99.90;;;;;;5034903;28;20496;-48
2023/04/27 04:34:29;;;;;;;13.67;6.30;;;3.40;99.90;;;;;;5034901;28;20697;-48
2023/04/27 04:36:58;;;;;;;14.80;6.40;;;3.40;99.90;;;;;;5035161;28;20422;-47
2023/04/27 04:39:23;;;;;;;10.90;6.30;;;3.40;99.90;;;;;;5034989;28;20616;-47
2023/04/27 04:41:49;;;;;;;16.73;7.20;;;3.40;99.90;;;;;;5034805;28;20422;-47
2023/04/27 04:44:15;;;;;;;18.07;6.50;;;3.40;99.90;;;;;;5034774;28;20176;-48
2023/04/27 04:46:41;;;;;;;15.27;6.30;;;3.50;1.00;;;;;;5034836;28;20189;-47
2023/04/27 04:49:07;;;;;;;13.80;7.17;;;3.50;1.00;;;;;;5034512;28;20475;-48
2023/04/27 04:51:33;;;;;;;19.63;8.70;;;3.50;1.00;;;;;;5034679;28;20415;-48
2023/04/27 04:53:58;;;;;;;21.63;8.20;;;3.60;1.00;;;;;;5034620;28;20180;-49
2023/04/27 04:56:24;;;;;;;22.50;9.07;;;3.70;1.00;;;;;;5034474;28;20182;-47
2023/04/27 04:58:50;;;;;;;23.70;8.50;;;3.70;1.00;;;;;;5034278;28;20180;-48
2023/04/27 05:01:16;;;;;;;21.10;8.60;;;3.80;1.00;;;;;;5034320;28;20180;-48
2023/04/27 05:03:42;;;;;;;15.93;7.20;;;3.90;1.00;;;;;;5034500;28;20248;-48
2023/04/27 05:06:07;;;;;;;25.27;9.60;;;3.90;99.90;;;;;;5034483;28;20241;-47
2023/04/27 05:08:33;;;;;;;27.60;11.17;;;3.90;99.90;;;;;;5034273;28;20409;-50
2023/04/27 05:10:59;;;;;;;23.40;7.83;;;3.90;99.90;;;;;;5034491;28;20183;-48
2023/04/27 05:13:25;;;;;;;24.00;7.97;;;3.90;99.90;;;;;;5034468;28;20175;-48
2023/04/27 05:15:51;;;;;;;27.63;9.00;;;4.00;99.90;;;;;;5034376;28;20191;-48
2023/04/27 05:18:17;;;;;;;24.10;8.03;;;4.10;99.90;;;;;;5034175;28;20429;-48
2023/04/27 05:20:43;;;;;;;15.50;8.00;;;4.10;21.20;;;;;;5033944;28;20299;-48
2023/04/27 05:23:09;;;;;;;13.20;6.83;;;4.20;11.10;;;;;;5034146;28;20510;-48
2023/04/27 05:25:40;;;;;;;12.43;6.70;;;4.40;1.00;;;;;;5032995;28;20950;-48
2023/04/27 05:28:09;;;;;;;11.83;6.67;;;4.50;1.00;;;;;;5033762;28;20636;-48
2023/04/27 05:30:36;;;;;;;15.07;6.80;;;4.60;99.90;;;;;;5033784;28;20418;-48
2023/04/27 05:33:03;;;;;;;9.83;6.00;;;4.60;99.90;;;;;;5034169;28;20410;-47
2023/04/27 05:35:29;;;;;;;12.80;6.27;;;4.60;99.90;;;;;;5033721;28;20511;-48
2023/04/27 05:37:55;;;;;;;9.23;5.10;;;4.60;99.90;;;;;;5033733;28;20418;-48
2023/04/27 05:40:21;;;;;;;18.93;6.57;;;4.70;99.90;;;;;;5033773;28;20426;-48
2023/04/27 05:42:47;;;;;;;12.47;6.80;;;4.80;99.90;;;;;;5033672;28;20473;-49
2023/04/27 05:45:13;;;;;;;13.10;6.00;;;4.90;99.90;;;;;;5033605;28;20636;-48
2023/04/27 05:47:39;;;;;;;8.90;5.57;;;5.00;99.90;;;;;;5033690;28;20469;-48
2023/04/27 05:50:05;;;;;;;14.73;5.63;;;5.20;99.90;;;;;;5033902;28;20933;-48
2023/04/27 05:52:30;;;;;;;7.50;5.50;;;5.40;95.00;;;;;;5033362;28;20179;-48
2023/04/27 05:54:59;;;;;;;15.90;6.43;;;5.60;19.60;;;;;;5033769;28;20426;-47
2023/04/27 05:57:26;;;;;;;13.17;7.77;;;5.70;1.00;;;;;;5033557;28;20210;-50
2023/04/27 05:59:52;;;;;;;9.57;5.60;;;5.90;1.00;;;;;;5033545;28;20753;-49
2023/04/27 06:02:18;;;;;;;18.80;7.53;;;6.00;1.00;;;;;;5033704;28;20422;-49
2023/04/27 06:04:44;;;;;;;15.87;6.77;;;6.20;1.00;;;;;;5033885;28;20785;-49
2023/04/27 06:07:11;;;;;;;18.60;5.93;;;6.40;1.00;;;;;;5033331;28;20776;-49
2023/04/27 06:09:37;;;;;;;17.13;6.50;;;6.60;1.00;;;;;;5033611;28;20813;-49
2023/04/27 06:12:03;;;;;;;14.00;5.53;;;6.90;1.00;;;;;;5033072;28;20918;-49
2023/04/27 06:14:35;;;;;;;14.90;6.10;;;7.20;1.00;;;;;;5033132;28;20752;-48
2023/04/27 06:17:01;;;;;;;17.20;6.37;;;7.40;1.00;;;;;;5033604;28;20402;-48
2023/04/27 06:19:27;;;;;;;9.97;5.10;;;7.60;1.00;;;;;;5033128;28;20964;-48
2023/04/27 06:21:54;;;;;;;9.60;5.10;;;7.70;1.00;;;;;;5033273;28;20410;-49
2023/04/27 06:24:21;;;;;;;9.13;4.40;;;7.90;1.00;;;;;;5033023;28;20190;-50
2023/04/27 06:26:46;;;;;;;8.63;5.10;;;7.80;1.00;;;;;;5033352;28;20423;-49
2023/04/27 06:29:12;;;;;;;10.63;4.77;;;7.80;1.00;;;;;;5033231;28;20411;-50
2023/04/27 06:31:38;;;;;;;14.47;5.80;;;7.90;1.00;;;;;;5033278;28;20183;-49
2023/04/27 06:34:03;;;;;;;10.53;5.20;;;8.10;1.00;;;;;;5033233;28;20508;-49
2023/04/27 06:36:30;;;;;;;8.63;5.70;;;8.30;1.00;;;;;;5034521;28;20285;-49
2023/04/27 06:38:55;;;;;;;10.97;5.10;;;8.60;1.00;;;;;;5037321;28;20184;-49
2023/04/27 06:41:22;;;;;;;14.33;5.43;;;8.70;1.00;;;;;;5037233;28;20413;-49
2023/04/27 06:43:47;;;;;;;10.77;5.47;;;8.90;1.00;;;;;;5036838;28;20194;-50
2023/04/27 06:46:13;;;;;;;11.43;5.10;;;8.90;1.00;;;;;;5037152;28;20469;-49
2023/04/27 06:48:39;;;;;;;8.10;4.30;;;9.10;1.00;;;;;;5036366;28;20265;-49
2023/04/27 06:51:05;;;;;;;13.37;3.90;;;9.10;1.00;;;;;;5037022;28;20464;-50
2023/04/27 06:53:31;;;;;;;10.40;4.70;;;9.30;1.00;;;;;;5036734;28;20461;-49
2023/04/27 06:55:56;;;;;;;8.70;4.33;;;9.40;1.00;;;;;;5036508;28;20187;-49
2023/04/27 06:58:22;;;;;;;7.03;4.23;;;9.50;1.00;;;;;;5036613;28;20184;-51
2023/04/27 07:00:48;;;;;;;10.33;3.73;;;9.70;1.00;;;;;;5035726;28;20620;-49
2023/04/27 07:03:14;;;;;;;7.03;3.90;;;9.70;1.00;;;;;;5036606;28;20179;-49
2023/04/27 07:05:40;;;;;;;9.73;3.73;;;9.90;1.00;;;;;;5036649;28;20218;-49
2023/04/27 07:08:05;;;;;;;5.30;4.17;;;10.00;1.00;;;;;;5035696;28;20988;-48
2023/04/27 07:10:31;;;;;;;5.77;3.53;;;10.50;1.00;;;;;;5035270;28;20175;-49
2023/04/27 07:12:57;;;;;;;7.93;4.23;;;11.00;1.00;;;;;;5036636;28;20184;-49
2023/04/27 07:15:23;;;;;;;13.00;4.87;;;11.40;1.00;;;;;;5036537;28;20756;-50
2023/04/27 07:17:53;;;;;;;8.80;4.47;;;10.90;1.00;;;;;;5068478;28;20187;-49
2023/04/27 07:20:19;;;;;;;9.43;4.67;;;10.30;1.00;;;;;;5036857;28;20411;-49
2023/04/27 07:22:45;;;;;;;9.67;4.50;;;10.40;1.00;;;;;;5036427;28;20416;-49
2023/04/27 07:25:11;;;;;;;6.47;4.23;;;10.40;1.00;;;;;;5036499;28;20526;-49
2023/04/27 07:27:37;;;;;;;6.33;3.90;;;10.50;1.00;;;;;;5036201;28;20183;-49
2023/04/27 07:30:04;;;;;;;7.40;3.53;;;10.10;1.00;;;;;;5036308;28;20422;-48
2023/04/27 07:32:30;;;;;;;6.57;3.67;;;9.70;1.00;;;;;;5035989;28;20948;-49
2023/04/27 07:34:56;;;;;;;6.80;3.57;;;9.30;1.00;;;;;;5035831;28;20509;-49
2023/04/27 07:37:23;;;;;;;5.33;3.03;;;9.30;1.00;;;;;;5036085;28;20198;-48
2023/04/27 07:39:50;;;;;;;5.67;3.07;;;9.90;1.00;;;;;;5036027;28;20522;-49
2023/04/27 07:42:17;;;;;;;4.40;2.70;;;10.30;1.00;;;;;;5035897;28;20430;-48
2023/04/27 07:44:42;;;;;;;4.87;2.80;;;10.10;1.00;;;;;;5035613;28;20458;-49
2023/04/27 07:47:08;;;;;;;4.67;2.87;;;9.70;1.00;;;;;;5035410;28;20472;-49
2023/04/27 07:49:34;;;;;;;6.30;2.73;;;9.60;1.00;;;;;;5035451;28;20674;-48
2023/04/27 07:52:00;;;;;;;4.50;2.57;;;10.10;1.00;;;;;;5035913;28;20448;-48
2023/04/27 07:54:26;;;;;;;3.60;2.50;;;10.70;1.00;;;;;;5035887;28;20474;-48
2023/04/27 07:56:52;;;;;;;4.83;3.03;;;11.40;1.00;;;;;;5035978;28;20639;-50
2023/04/27 07:59:18;;;;;;;5.37;2.23;;;12.00;1.00;;;;;;5035832;28;20190;-48
2023/04/27 08:01:44;;;;;;;8.23;3.03;;;12.00;1.00;;;;;;5035738;28;20418;-49
2023/04/27 08:04:11;;;;;;;4.57;3.17;;;12.30;1.00;;;;;;5035995;28;20681;-49
2023/04/27 08:06:37;;;;;;;4.83;3.10;;;12.60;1.00;;;;;;5035825;28;20223;-49
2023/04/27 08:09:03;;;;;;;15.30;2.80;;;13.10;1.00;;;;;;5035734;28;20545;-49
2023/04/27 08:11:29;;;;;;;3.87;3.03;;;13.00;1.00;;;;;;5035379;28;20498;-49
2023/04/27 08:13:55;;;;;;;4.77;2.83;;;12.70;1.00;;;;;;5035349;28;20921;-49
2023/04/27 08:16:20;;;;;;;2.93;2.50;;;12.30;1.00;;;;;;5035151;28;20187;-49
2023/04/27 08:18:46;;;;;;;5.20;2.83;;;11.50;1.00;;;;;;5035341;28;20187;-48
2023/04/27 08:21:11;;;;;;;7.63;3.10;;;10.90;1.00;;;;;;5035451;28;20184;-49
2023/04/27 08:23:37;;;;;;;3.83;2.50;;;11.20;1.00;;;;;;5035551;28;20176;-49
2023/04/27 08:26:03;;;;;;;5.37;2.90;;;11.90;1.00;;;;;;5035157;28;20214;-48
2023/04/27 08:28:29;;;;;;;5.93;2.70;;;12.20;1.00;;;;;;5034824;28;20188;-48
2023/04/27 08:30:54;;;;;;;6.27;2.40;;;11.60;1.00;;;;;;5035259;28;20191;-49
2023/04/27 08:33:20;;;;;;;5.33;2.90;;;11.40;1.00;;;;;;5034780;28;20180;-49
2023/04/27 08:35:45;;;;;;;4.63;2.70;;;11.40;1.00;;;;;;5035250;28;20183;-49
2023/04/27 08:38:11;;;;;;;6.30;3.40;;;11.50;1.00;;;;;;5034659;28;20651;-48
2023/04/27 08:40:43;;;;;;;9.23;2.90;;;11.70;1.00;;;;;;5034822;28;20215;-49
2023/04/27 08:43:09;;;;;;;7.10;3.33;;;11.90;1.00;;;;;;5034870;28;20184;-49
2023/04/27 08:45:35;;;;;;;3.90;2.60;;;11.70;1.00;;;;;;5034698;28;20592;-49
2023/04/27 08:48:00;;;;;;;3.57;2.33;;;11.30;1.00;;;;;;5034405;28;20242;-49
2023/04/27 08:50:26;;;;;;;3.70;2.70;;;11.00;1.00;;;;;;5034633;28;20190;-49
2023/04/27 08:52:52;;;;;;;2.90;2.60;;;10.70;1.00;;;;;;5034697;28;20186;-49
2023/04/27 08:55:18;;;;;;;4.80;2.30;;;10.60;1.00;;;;;;5034402;28;20186;-48
2023/04/27 08:57:57;;;;;;;6.60;2.57;;;10.50;1.00;;;;;;5034343;28;20180;-48
2023/04/27 09:00:25;;;;;;;5.40;2.80;;;10.70;1.00;;;;;;5035038;28;20195;-48
2023/04/27 09:02:51;;;;;;;6.50;2.70;;;10.90;1.00;;;;;;5034266;28;20418;-48
2023/04/27 09:05:18;;;;;;;6.70;3.60;;;11.20;1.00;;;;;;5034442;28;20519;-48
2023/04/27 09:08:00;;;;;;;5.83;2.90;;;12.10;1.00;;;;;;5034650;28;20424;-49
2023/04/27 09:10:28;;;;;;;4.73;2.50;;;13.30;1.00;;;;;;5034453;28;20423;-49
2023/04/27 09:13:00;;;;;;;2.70;2.50;;;14.30;1.00;;;;;;5034345;28;20418;-49
2023/04/27 09:15:27;;;;;;;9.87;3.03;;;15.00;1.00;;;;;;5034476;28;20424;-49
2023/04/27 09:17:55;;;;;;;5.93;2.77;;;15.00;1.00;;;;;;5034198;28;20904;-49
2023/04/27 09:20:21;;;;;;;3.77;2.70;;;14.50;1.00;;;;;;5033808;28;20791;-49
2023/04/27 09:22:50;;;;;;;6.97;2.87;;;13.50;1.00;;;;;;5034311;28;20453;-49
2023/04/27 09:25:30;;;;;;;6.13;3.30;;;12.70;1.00;;;;;;5034091;28;20460;-49
2023/04/27 09:27:57;;;;;;;6.67;3.30;;;12.00;1.00;;;;;;5034264;28;20434;-49
2023/04/27 09:30:24;;;;;;;7.10;3.07;;;12.20;1.00;;;;;;5033938;28;20427;-48
2023/04/27 09:32:51;;;;;;;6.13;3.13;;;12.70;1.00;;;;;;5034107;28;20408;-49
2023/04/27 09:35:25;;;;;;;4.93;2.60;;;13.60;1.00;;;;;;5034246;28;20422;-50
2023/04/27 09:37:52;;;;;;;7.20;2.53;;;13.70;1.00;;;;;;5033629;28;20884;-49
2023/04/27 09:40:22;;;;;;;8.67;3.20;;;13.60;1.00;;;;;;5034146;28;20422;-48
2023/04/27 09:42:48;;;;;;;3.70;2.50;;;13.80;1.00;;;;;;5033417;28;20422;-49
2023/04/27 09:45:14;;;;;;;3.97;2.50;;;13.70;1.00;;;;;;5033444;28;21057;-49
2023/04/27 09:47:40;;;;;;;4.83;2.90;;;13.60;1.00;;;;;;5033536;28;20278;-49
2023/04/27 09:50:08;;;;;;;7.63;2.53;;;13.50;1.00;;;;;;5034109;28;20425;-49
2023/04/27 09:52:33;;;;;;;9.63;2.60;;;13.50;1.00;;;;;;5033525;28;20464;-48
2023/04/27 09:55:01;;;;;;;6.97;3.70;;;12.90;99.90;;;;;;5033449;28;20513;-49
2023/04/27 09:57:36;;;;;;;4.47;2.90;;;12.30;1.00;;;;;;5033575;28;20175;-49
2023/04/27 10:00:19;;;;;;;5.87;3.20;;;11.80;1.00;;;;;;5033788;28;20486;-49
2023/04/27 10:03:10;;;;;;;5.07;3.07;;;11.50;1.00;;;;;;5033835;28;20432;-49
2023/04/27 10:05:41;;;;;;;4.80;3.10;;;11.30;1.00;;;;;;5033539;28;20456;-49
2023/04/27 10:08:10;;;;;;;5.40;3.10;;;11.40;1.00;;;;;;5033954;28;20410;-49
2023/04/27 10:10:46;;;;;;;5.60;2.90;;;11.90;1.00;;;;;;5034758;28;20417;-49
2023/04/27 10:13:23;;;;;;;5.13;2.80;;;12.70;1.00;;;;;;5040081;28;20421;-49
2023/04/27 10:15:49;;;;;;;9.43;2.90;;;13.40;1.00;;;;;;5039807;28;20398;-49
2023/04/27 10:18:33;;;;;;;5.10;3.40;;;14.00;1.00;;;;;;5039641;28;20785;-49
2023/04/27 10:21:11;;;;;;;4.13;2.77;;;14.50;99.90;;;;;;5039842;28;20889;-49
2023/04/27 10:23:49;;;;;;;5.60;2.83;;;14.40;99.90;;;;;;5039894;28;20425;-49
2023/04/27 10:26:26;;;;;;;5.23;2.77;;;14.00;99.90;;;;;;5039963;28;20457;-49
2023/04/27 10:29:09;;;;;;;5.23;2.47;;;13.70;99.90;;;;;;5040203;28;20411;-50
2023/04/27 10:31:34;;;;;;;3.17;2.87;;;13.50;99.90;;;;;;5039680;28;20918;-49
2023/04/27 10:34:10;;;;;;;4.77;2.60;;;13.20;99.90;;;;;;5039779;28;20444;-49
2023/04/27 10:36:37;;;;;;;7.50;2.60;;;13.30;99.90;;;;;;5039551;28;20187;-49
2023/04/27 10:39:24;;;;;;;5.77;2.87;;;13.40;99.90;;;;;;5040071;28;20556;-49
2023/04/27 10:41:51;;;;;;;8.10;3.53;;;13.20;99.90;;;;;;5040245;28;20406;-50
2023/04/27 10:44:27;;;;;;;9.00;3.83;;;12.60;99.90;;;;;;5039708;28;20433;-49
2023/04/27 10:46:53;;;;;;;5.10;3.30;;;12.20;99.90;;;;;;5040081;28;20418;-49
2023/04/27 10:49:20;;;;;;;6.50;3.10;;;12.20;99.90;;;;;;5039657;28;20465;-49
2023/04/27 10:51:46;;;;;;;8.17;3.27;;;12.60;1.00;;;;;;5039316;28;20434;-49
2023/04/27 10:54:12;;;;;;;3.73;3.00;;;12.80;99.90;;;;;;5039895;28;20414;-49
2023/04/27 10:56:40;;;;;;;6.27;3.80;;;12.40;99.90;;;;;;5039769;28;20490;-49
2023/04/27 10:59:07;;;;;;;4.67;3.13;;;12.40;99.90;;;;;;5038320;28;20438;-49
2023/04/27 11:01:33;;;;;;;5.50;3.20;;;12.60;99.90;;;;;;5036427;28;20448;-49
2023/04/27 11:03:59;;;;;;;5.30;3.33;;;12.20;99.90;;;;;;5036765;28;20438;-49
2023/04/27 11:06:27;;;;;;;6.10;3.90;;;12.20;99.90;;;;;;5036281;28;20465;-49
2023/04/27 11:08:52;;;;;;;9.83;4.30;;;12.10;1.00;;;;;;5036402;28;20994;-49
2023/04/27 11:11:18;;;;;;;7.07;4.13;;;12.30;1.00;;;;;;5036075;28;20431;-49
2023/04/27 11:13:48;;;;;;;6.30;4.17;;;12.80;1.00;;;;;;5036393;28;20183;-52
2023/04/27 11:16:14;;;;;;;7.10;4.20;;;13.70;1.00;;;;;;5036659;28;20495;-50
2023/04/27 11:18:40;;;;;;;7.73;3.77;;;14.10;1.00;;;;;;5036057;28;20486;-49
2023/04/27 11:21:28;;;;;;;6.53;3.97;;;14.60;1.00;;;;;;5036727;28;20433;-50
2023/04/27 11:23:54;;;;;;;8.10;4.23;;;14.90;99.90;;;;;;5029016;28;20438;-49
2023/04/27 11:26:21;;;;;;;5.43;3.40;;;15.50;99.90;;;;;;5032525;28;21038;-49
2023/04/27 11:28:57;;;;;;;4.37;3.97;;;15.60;99.90;;;;;;5033735;28;20198;-50
2023/04/27 11:31:24;;;;;;;6.23;3.97;;;15.60;99.90;;;;;;5033707;28;20876;-49
2023/04/27 11:33:50;;;;;;;5.53;3.87;;;15.80;99.90;;;;;;5032299;28;20484;-50
2023/04/27 11:36:17;;;;;;;6.63;4.00;;;16.00;99.90;;;;;;5033622;28;20437;-49
2023/04/27 11:38:43;;;;;;;7.70;3.77;;;15.80;99.90;;;;;;5031816;28;20444;-50
2023/04/27 11:41:09;;;;;;;4.63;3.30;;;15.60;99.90;;;;;;5033033;28;20447;-51
2023/04/27 11:43:39;;;;;;;5.67;4.10;;;15.30;99.90;;;;;;5033644;28;20458;-49
2023/04/27 11:46:07;;;;;;;4.23;3.70;;;14.40;99.90;;;;;;5030821;28;20211;-50
2023/04/27 11:48:36;;;;;;;7.63;3.67;;;14.00;99.90;;;;;;5032940;28;20530;-49
2023/04/27 11:51:02;;;;;;;8.80;3.80;;;13.70;99.90;;;;;;5033285;28;20450;-50
2023/04/27 11:53:33;;;;;;;8.13;4.23;;;13.30;99.90;;;;;;5035086;28;20876;-50
2023/04/27 11:56:01;;;;;;;7.93;4.20;;;13.10;99.90;;;;;;5035105;28;20432;-50
2023/04/27 11:58:29;;;;;;;6.97;4.00;;;13.40;99.90;;;;;;5034919;28;20420;-50
2023/04/27 12:00:57;;;;;;;5.33;4.30;;;13.90;99.90;;;;;;5035113;28;20507;-50
2023/04/27 12:03:23;;;;;;;9.83;4.90;;;13.70;99.90;;;;;;5035801;28;20742;-50
2023/04/27 12:05:51;;;;;;;10.50;4.13;;;13.70;99.90;;;;;;5035554;28;20473;-49
2023/04/27 12:08:18;;;;;;;4.30;3.60;;;13.70;99.90;;;;;;5035422;28;20184;-49
2023/04/27 12:10:44;;;;;;;3.40;3.10;;;14.10;99.90;;;;;;5035633;28;20420;-49
2023/04/27 12:13:11;;;;;;;7.07;3.40;;;14.50;99.90;;;;;;5035402;28;20426;-50
2023/04/27 12:15:37;;;;;;;6.20;3.47;;;14.20;99.90;;;;;;5035459;28;20422;-49
2023/04/27 12:18:03;;;;;;;10.47;3.90;;;13.80;99.90;;;;;;5034946;28;20423;-50
2023/04/27 12:20:28;;;;;;;5.03;3.40;;;13.50;99.90;;;;;;5035395;28;20513;-50
2023/04/27 12:22:55;;;;;;;4.73;3.60;;;13.40;99.90;;;;;;5035394;28;20180;-49
2023/04/27 12:25:21;;;;;;;5.90;3.20;;;13.20;99.90;;;;;;5034961;28;20230;-50
2023/04/27 12:27:47;;;;;;;7.13;3.57;;;12.90;99.90;;;;;;5035020;28;20417;-50
2023/04/27 12:30:13;;;;;;;8.90;4.30;;;12.60;99.90;;;;;;5035090;28;20214;-49
2023/04/27 12:32:40;;;;;;;5.10;3.30;;;12.20;99.90;;;;;;5035014;28;20453;-50
2023/04/27 12:35:06;;;;;;;4.20;3.80;;;12.00;99.90;;;;;;5034144;28;20426;-49
2023/04/27 12:37:33;;;;;;;5.20;4.10;;;11.90;99.90;;;;;;5033832;28;20433;-50
2023/04/27 12:39:58;;;;;;;5.90;4.30;;;11.80;99.90;;;;;;5034724;28;20466;-49
2023/04/27 12:42:24;;;;;;;6.60;4.57;;;11.60;99.90;;;;;;5034602;28;20418;-49
2023/04/27 12:44:50;;;;;;;5.17;4.13;;;11.60;99.90;;;;;;5035216;28;20294;-50
2023/04/27 12:47:17;;;;;;;10.13;4.23;;;11.70;1.00;;;;;;5034692;28;20669;-49
2023/04/27 12:49:42;;;;;;;5.90;3.83;;;11.90;99.90;;;;;;5034626;28;20425;-49
2023/04/27 12:52:08;;;;;;;5.30;3.80;;;12.20;99.90;;;;;;5034615;28;20419;-49
2023/04/27 12:54:35;;;;;;;9.10;4.77;;;12.30;99.90;;;;;;5066560;28;20218;-50